createdAt,value
2022-12-16T07:18:04.660Z,94973.26
2022-12-16T07:20:34.077Z,94911.81
2022-12-16T07:23:07.759Z,94951.75
2022-12-16T07:25:26.519Z,94945.59
2022-12-16T07:27:52.980Z,94966.50
2022-12-16T07:30:19.244Z,94958.95
2022-12-16T07:32:45.499Z,94941.91
2022-12-16T07:35:11.693Z,94920.23
2022-12-16T07:37:38.067Z,94974.44
2022-12-16T07:40:04.352Z,94964.09
2022-12-16T07:42:30.608Z,94956.25
2022-12-16T07:44:56.924Z,94953.97
2022-12-16T07:47:24.611Z,94949.20
2022-12-16T07:49:49.565Z,94965.80
2022-12-16T07:52:15.810Z,94972.36
2022-12-16T07:54:42.076Z,94958.66
2022-12-16T07:57:08.319Z,94960.31
2022-12-16T07:59:39.033Z,94965.38
2022-12-16T08:02:01.150Z,94967.60
2022-12-16T08:04:27.293Z,94992.09
2022-12-16T08:06:53.565Z,94949.58
2022-12-16T08:09:19.824Z,94966.28
2022-12-16T08:11:46.105Z,94983.42
2022-12-16T08:14:12.383Z,94964.52
2022-12-16T08:16:38.723Z,94978.97
2022-12-16T08:19:10.491Z,94979.43
2022-12-16T08:21:31.147Z,94948.07
2022-12-16T08:23:57.392Z,94976.55
2022-12-16T08:26:23.633Z,94963.16
2022-12-16T08:28:49.856Z,94983.39
2022-12-16T08:31:16.143Z,94980.79
2022-12-16T08:33:42.337Z,94942.92
2022-12-16T08:36:09.214Z,94955.62
2022-12-16T08:38:35.472Z,94966.17
2022-12-16T08:41:01.705Z,94972.20
2022-12-16T08:43:27.948Z,94961.35
2022-12-16T08:45:54.256Z,94936.27
2022-12-16T08:48:20.477Z,94939.92
2022-12-16T08:50:46.853Z,94939.22
2022-12-16T08:53:13.165Z,94938.63
2022-12-16T08:55:39.455Z,94942.22
2022-12-16T08:58:05.758Z,94940.47
2022-12-16T09:00:32.027Z,94932.86
2022-12-16T09:02:58.435Z,94940.56
2022-12-16T09:05:24.530Z,94924.13
2022-12-16T09:07:50.805Z,94931.82
2022-12-16T09:10:17.090Z,94896.35
2022-12-16T09:12:43.429Z,94905.73
2022-12-16T09:15:09.785Z,94910.88
2022-12-16T09:17:37.864Z,94908.49
2022-12-16T09:20:02.435Z,94904.45
2022-12-16T09:22:28.673Z,94892.37
2022-12-16T09:24:54.959Z,94907.58
2022-12-16T09:27:21.212Z,94898.98
2022-12-16T09:29:47.491Z,94900.48
2022-12-16T09:32:13.708Z,94876.90
2022-12-16T09:34:40.037Z,94885.30
2022-12-16T09:37:06.362Z,94852.02
2022-12-16T09:39:32.636Z,94851.38
2022-12-16T09:41:58.939Z,94887.56
2022-12-16T09:44:25.260Z,94861.42
2022-12-16T09:46:51.580Z,94878.87
2022-12-16T09:49:17.842Z,94861.38
2022-12-16T09:51:44.165Z,94858.22
2022-12-16T09:54:10.629Z,94868.92
2022-12-16T09:56:36.930Z,94861.27
2022-12-16T09:59:03.218Z,94861.73
2022-12-16T10:01:29.634Z,94842.52
2022-12-16T10:03:56.006Z,94876.33
2022-12-16T10:06:22.189Z,94836.06
2022-12-16T10:08:48.385Z,94866.78
2022-12-16T10:11:14.619Z,94858.92
2022-12-16T10:13:40.898Z,94838.88
2022-12-16T10:16:07.206Z,94861.13
2022-12-16T10:18:33.597Z,94872.72
2022-12-16T10:20:59.704Z,94839.77
2022-12-16T10:23:26.021Z,94876.83
2022-12-16T10:25:52.304Z,94817.66
2022-12-16T10:28:18.588Z,94848.53
2022-12-16T10:30:44.879Z,94835.27
2022-12-16T10:33:11.113Z,94812.55
2022-12-16T10:35:37.445Z,94819.52
2022-12-16T10:38:03.816Z,94818.66
2022-12-16T10:40:30.086Z,94804.25
2022-12-16T10:42:56.340Z,94826.47
2022-12-16T10:45:22.677Z,94824.95
2022-12-16T10:47:48.950Z,94832.35
2022-12-16T10:50:15.261Z,94817.55
2022-12-16T10:52:41.448Z,94810.30
2022-12-16T10:55:09.690Z,94819.47
2022-12-16T10:57:34.010Z,94811.81
2022-12-16T11:00:00.231Z,94795.45
2022-12-16T11:02:26.684Z,94803.37
2022-12-16T11:04:55.711Z,94813.72
2022-12-16T11:07:19.107Z,94813.56
2022-12-16T11:09:45.411Z,94818.63
2022-12-16T11:12:11.680Z,94816.16
2022-12-16T11:14:37.989Z,94809.65
2022-12-16T11:17:04.309Z,94837.11
2022-12-16T11:19:30.616Z,94782.13
2022-12-16T11:21:56.912Z,94827.50
2022-12-16T11:24:23.224Z,94807.45
2022-12-16T11:26:49.517Z,94803.64
2022-12-16T11:29:15.806Z,94799.80
2022-12-16T11:31:42.222Z,94801.39
2022-12-16T11:34:08.462Z,94785.63
2022-12-16T11:36:34.775Z,94809.65
2022-12-16T11:39:01.034Z,94801.95
2022-12-16T11:41:27.326Z,94789.68
2022-12-16T11:43:53.589Z,94810.31
2022-12-16T11:46:19.975Z,94780.70
2022-12-16T11:48:46.107Z,94787.37
2022-12-16T11:51:12.448Z,94783.33
2022-12-16T11:53:38.623Z,94772.12
2022-12-16T11:56:12.413Z,94776.70
2022-12-16T11:58:31.136Z,94774.05
2022-12-16T12:00:57.406Z,94781.77
2022-12-16T12:03:23.847Z,94769.50
2022-12-16T12:05:49.958Z,94784.06
2022-12-16T12:08:16.181Z,94739.41
2022-12-16T12:10:42.386Z,94755.41
2022-12-16T12:13:08.668Z,94758.83
2022-12-16T12:15:35.897Z,94761.08
2022-12-16T12:18:01.104Z,94772.59
2022-12-16T12:20:27.428Z,94762.53
2022-12-16T12:22:53.720Z,94749.73
2022-12-16T12:25:19.954Z,94745.48
2022-12-16T12:27:46.261Z,94751.44
2022-12-16T12:30:16.378Z,94733.59
2022-12-16T12:32:40.548Z,94784.42
2022-12-16T12:35:05.271Z,94740.13
2022-12-16T12:37:31.519Z,94710.47
2022-12-16T12:39:57.756Z,94758.08
2022-12-16T12:42:24.008Z,94741.63
2022-12-16T12:44:50.254Z,94751.90
2022-12-16T12:47:16.577Z,94746.61
2022-12-16T12:49:42.803Z,94733.60
2022-12-16T12:52:11.103Z,94750.15
2022-12-16T12:54:35.304Z,94745.70
2022-12-16T12:57:01.588Z,94753.96
2022-12-16T12:59:27.874Z,94755.87
2022-12-16T13:01:54.289Z,94751.66
2022-12-16T13:04:20.362Z,94765.95
2022-12-16T13:06:46.591Z,94748.61
2022-12-16T13:09:13.029Z,94752.11
2022-12-16T13:11:39.267Z,94736.15
2022-12-16T13:14:05.602Z,94752.91
2022-12-16T13:16:34.875Z,94742.05
2022-12-16T13:19:05.111Z,94717.75
2022-12-16T13:21:27.464Z,94698.29
2022-12-16T13:23:53.773Z,94754.36
2022-12-16T13:26:19.993Z,94752.00
2022-12-16T13:28:46.389Z,94716.58
2022-12-16T13:31:12.712Z,94735.63
2022-12-16T13:33:38.925Z,94751.64
2022-12-16T13:36:05.206Z,94747.94
2022-12-16T13:38:31.433Z,94734.45
2022-12-16T13:40:57.646Z,94754.48
2022-12-16T13:43:24.154Z,94754.70
2022-12-16T13:45:50.258Z,94758.34
2022-12-16T13:48:16.488Z,94768.44
2022-12-16T13:50:42.689Z,94773.28
2022-12-16T13:53:09.028Z,94762.09
2022-12-16T13:55:35.305Z,94765.49
2022-12-16T13:58:01.573Z,94763.34
2022-12-16T14:00:33.216Z,94775.28
2022-12-16T14:02:56.536Z,94773.30
2022-12-16T14:05:20.316Z,94783.30
2022-12-16T14:07:47.243Z,94775.54
2022-12-16T14:10:13.462Z,94787.79
2022-12-16T14:12:44.876Z,94783.89
2022-12-16T14:15:06.094Z,94794.23
2022-12-16T14:17:32.417Z,94806.30
2022-12-16T14:19:58.819Z,94781.00
2022-12-16T14:22:25.319Z,94778.64
2022-12-16T14:24:51.485Z,94813.88
2022-12-16T14:27:17.739Z,94793.39
2022-12-16T14:29:44.035Z,94791.16
2022-12-16T14:32:10.386Z,94812.38
2022-12-16T14:34:36.732Z,94792.68
2022-12-16T14:37:03.069Z,94800.13
2022-12-16T14:39:29.322Z,94808.94
2022-12-16T14:41:55.558Z,94788.89
2022-12-16T14:44:21.858Z,94807.38
2022-12-16T14:46:48.178Z,94810.38
2022-12-16T14:49:14.400Z,94790.73
2022-12-16T14:51:40.703Z,94775.25
2022-12-16T14:54:06.929Z,94798.73
2022-12-16T14:56:33.262Z,94820.88
2022-12-16T14:58:59.455Z,94773.50
2022-12-16T15:01:25.948Z,94815.66
2022-12-16T15:03:52.210Z,94804.38
2022-12-16T15:06:18.312Z,94798.02
2022-12-16T15:08:44.528Z,94782.55
2022-12-16T15:11:13.274Z,94797.38
2022-12-16T15:13:37.748Z,94802.97
2022-12-16T15:16:03.402Z,94796.59
2022-12-16T15:18:29.721Z,94790.42
2022-12-16T15:20:55.921Z,94823.57
2022-12-16T15:23:22.136Z,94775.31
2022-12-16T15:25:48.445Z,94774.75
2022-12-16T15:28:14.686Z,94801.98
2022-12-16T15:30:41.013Z,94802.37
2022-12-16T15:33:07.382Z,94830.92
2022-12-16T15:35:33.718Z,94824.17
2022-12-16T15:38:04.217Z,94804.34
2022-12-16T15:40:26.159Z,94813.22
2022-12-16T15:42:55.976Z,94825.52
2022-12-16T15:45:22.141Z,94795.84
2022-12-16T15:47:48.445Z,94823.47
2022-12-16T15:50:14.718Z,94829.66
2022-12-16T15:52:40.927Z,94824.66
2022-12-16T15:55:07.242Z,94837.52
2022-12-16T15:57:33.481Z,94822.12
2022-12-16T15:59:59.772Z,94841.71
2022-12-16T16:02:26.107Z,94841.31
2022-12-16T16:04:52.345Z,94828.16
2022-12-16T16:07:18.671Z,94839.20
2022-12-16T16:09:45.237Z,94839.91
2022-12-16T16:12:11.527Z,94827.37
2022-12-16T16:14:37.881Z,94841.66
2022-12-16T16:17:05.201Z,94840.45
2022-12-16T16:19:31.566Z,94839.91
2022-12-16T16:21:58.011Z,94833.41
2022-12-16T16:24:24.303Z,94844.91
2022-12-16T16:26:50.565Z,94819.83
2022-12-16T16:29:16.956Z,94826.41
2022-12-16T16:31:43.377Z,94849.59
2022-12-16T16:34:09.566Z,94860.48
2022-12-16T16:36:35.888Z,94836.69
2022-12-16T16:39:02.125Z,94837.45
2022-12-16T16:41:28.394Z,94839.70
2022-12-16T16:43:54.631Z,94850.73
2022-12-16T16:46:20.969Z,94857.75
2022-12-16T16:48:47.146Z,94856.59
2022-12-16T16:51:13.409Z,94839.61
2022-12-16T16:53:39.683Z,94856.96
2022-12-16T16:56:05.892Z,94860.64
2022-12-16T16:58:32.138Z,94835.50
2022-12-16T17:00:58.409Z,94845.00
2022-12-16T17:03:24.799Z,94839.85
2022-12-16T17:05:50.905Z,94849.84
2022-12-16T17:08:17.204Z,94841.81
2022-12-16T17:10:43.417Z,94856.10
2022-12-16T17:13:09.684Z,94855.95
2022-12-16T17:15:36.046Z,94842.45
2022-12-16T17:18:02.257Z,94837.46
2022-12-16T17:20:28.449Z,94846.66
2022-12-16T17:22:54.779Z,94834.86
2022-12-16T17:25:20.989Z,94846.35
2022-12-16T17:27:47.259Z,94834.61
2022-12-16T17:30:13.560Z,94821.83
2022-12-16T17:32:39.987Z,94848.59
2022-12-16T17:35:06.255Z,94857.30
2022-12-16T17:37:32.577Z,94838.59
2022-12-16T17:39:58.965Z,94833.48
2022-12-16T17:42:25.080Z,94829.98
2022-12-16T17:44:51.369Z,94834.37
2022-12-16T17:47:17.669Z,94842.06
2022-12-16T17:49:43.997Z,94819.06
2022-12-16T17:52:10.263Z,94845.15
2022-12-16T17:54:36.603Z,94874.98
2022-12-16T17:57:02.908Z,94839.05
2022-12-16T17:59:29.314Z,94859.78
2022-12-16T18:01:55.583Z,94872.59
2022-12-16T18:04:21.763Z,94859.29
2022-12-16T18:06:47.983Z,94862.14
2022-12-16T18:09:14.239Z,94858.49
2022-12-16T18:11:40.520Z,94864.44
2022-12-16T18:14:06.778Z,94831.27
2022-12-16T18:16:33.203Z,94863.89
2022-12-16T18:18:59.371Z,94861.41
2022-12-16T18:21:25.702Z,94862.69
2022-12-16T18:23:51.909Z,94880.88
2022-12-16T18:26:18.175Z,94835.38
2022-12-16T18:28:44.487Z,94873.94
2022-12-16T18:31:10.717Z,94849.54
2022-12-16T18:33:37.337Z,94857.30
2022-12-16T18:36:03.157Z,94887.86
2022-12-16T18:38:29.422Z,94873.97
2022-12-16T18:40:55.661Z,94870.38
2022-12-16T18:43:21.878Z,94871.33
2022-12-16T18:45:48.184Z,94874.58
2022-12-16T18:48:14.402Z,94895.61
2022-12-16T18:50:40.662Z,94882.13
2022-12-16T18:53:06.888Z,94882.67
2022-12-16T18:55:33.094Z,94911.25
2022-12-16T18:57:59.342Z,94902.70
2022-12-16T19:00:25.618Z,94915.79
2022-12-16T19:02:51.984Z,94905.22
2022-12-16T19:05:18.101Z,94903.47
2022-12-16T19:07:44.482Z,94913.70
2022-12-16T19:10:10.715Z,94883.62
2022-12-16T19:12:36.977Z,94887.28
2022-12-16T19:15:03.212Z,94890.71
2022-12-16T19:17:29.400Z,94919.84
2022-12-16T19:19:55.636Z,94897.12
2022-12-16T19:22:21.878Z,94921.19
2022-12-16T19:24:48.241Z,94914.26
2022-12-16T19:27:15.608Z,94924.28
2022-12-16T19:29:40.745Z,94937.38
2022-12-16T19:32:06.996Z,94923.89
2022-12-16T19:34:33.293Z,94940.37
2022-12-16T19:36:59.522Z,94930.63
2022-12-16T19:39:25.795Z,94956.66
2022-12-16T19:41:52.095Z,94918.09
2022-12-16T19:44:18.355Z,94929.28
2022-12-16T19:46:44.658Z,94934.34
2022-12-16T19:49:10.859Z,94927.59
2022-12-16T19:51:37.148Z,94956.08
2022-12-16T19:54:03.810Z,94913.86
2022-12-16T19:56:29.624Z,94932.75
2022-12-16T19:58:56.306Z,94973.62
2022-12-16T20:01:25.287Z,94921.00
2022-12-16T20:03:48.973Z,94964.17
2022-12-16T20:06:14.691Z,94918.49
2022-12-16T20:08:41.015Z,94952.52
2022-12-16T20:11:07.260Z,94917.63
2022-12-16T20:13:33.768Z,94929.59
2022-12-16T20:15:59.876Z,94939.37
2022-12-16T20:18:26.226Z,94923.33
2022-12-16T20:20:52.506Z,94925.20
2022-12-16T20:23:18.694Z,94925.63
2022-12-16T20:25:45.089Z,94939.92
2022-12-16T20:28:11.291Z,94923.85
2022-12-16T20:30:37.684Z,94931.73
2022-12-16T20:33:03.959Z,94940.59
2022-12-16T20:35:30.205Z,94953.13
2022-12-16T20:37:56.480Z,94926.16
2022-12-16T20:40:22.816Z,94944.83
2022-12-16T20:42:49.037Z,94923.33
2022-12-16T20:45:15.270Z,94920.54
2022-12-16T20:47:41.511Z,94945.31
2022-12-16T20:50:07.793Z,94907.70
2022-12-16T20:52:34.043Z,94944.30
2022-12-16T20:55:00.349Z,94913.36
2022-12-16T20:57:26.566Z,94945.89
2022-12-16T20:59:52.811Z,94950.64
2022-12-16T21:02:23.775Z,94943.49
2022-12-16T21:04:45.358Z,94914.22
2022-12-16T21:07:11.572Z,94935.80
2022-12-16T21:09:37.829Z,94932.95
2022-12-16T21:12:04.037Z,94934.70
2022-12-16T21:14:30.302Z,94935.09
2022-12-16T21:16:56.505Z,94944.39
2022-12-16T21:21:49.035Z,94952.84
2022-12-16T21:24:15.460Z,94948.25
2022-12-16T21:26:41.681Z,94962.20
2022-12-16T21:29:07.928Z,94927.47
2022-12-16T21:31:34.228Z,94947.70
2022-12-16T21:34:00.453Z,94938.97
2022-12-16T21:36:26.725Z,94929.67
2022-12-16T21:38:52.997Z,94931.58
2022-12-16T21:41:19.228Z,94932.92
2022-12-16T21:43:45.507Z,94935.47
2022-12-16T21:46:11.749Z,94956.65
2022-12-16T21:48:37.974Z,94887.06
2022-12-16T21:51:04.189Z,94962.93
2022-12-16T21:53:30.427Z,94910.27
2022-12-16T21:55:56.780Z,94928.97
2022-12-16T21:58:22.921Z,94938.59
2022-12-16T22:00:51.191Z,94946.84
2022-12-16T22:03:15.521Z,94916.52
2022-12-16T22:05:41.696Z,94931.53
2022-12-16T22:08:08.020Z,94953.91
2022-12-16T22:10:34.261Z,94894.58
2022-12-16T22:13:00.568Z,94928.20
2022-12-16T22:15:26.769Z,94936.84
2022-12-16T22:17:57.993Z,94938.59
2022-12-16T22:20:19.280Z,94912.41
2022-12-16T22:22:45.494Z,94938.44
2022-12-16T22:25:14.533Z,94921.45
2022-12-16T22:27:38.070Z,94929.70
2022-12-16T22:30:04.324Z,94928.20
2022-12-16T22:32:30.588Z,94912.97
2022-12-16T22:34:56.814Z,94917.01
2022-12-16T22:37:23.075Z,94926.84
2022-12-16T22:39:49.275Z,94886.78
2022-12-16T22:42:15.540Z,94925.50
2022-12-16T22:44:41.832Z,94934.14
2022-12-16T22:47:07.976Z,94886.94
2022-12-16T22:49:34.214Z,94936.08
2022-12-16T22:52:00.482Z,94878.45
2022-12-16T22:54:26.759Z,94923.75
2022-12-16T22:56:56.362Z,94915.11
2022-12-16T22:59:19.284Z,94912.97
2022-12-16T23:01:45.591Z,94906.77
2022-12-16T23:04:11.876Z,94909.65
2022-12-16T23:06:38.077Z,94887.13
2022-12-16T23:09:04.296Z,94924.70
2022-12-16T23:11:30.520Z,94883.84
2022-12-16T23:13:56.825Z,94897.33
2022-12-16T23:16:23.119Z,94894.63
2022-12-16T23:18:49.287Z,94910.45
2022-12-16T23:21:15.513Z,94888.29
2022-12-16T23:23:42.197Z,94898.53
2022-12-16T23:26:07.989Z,94895.83
2022-12-16T23:28:34.171Z,94841.48
2022-12-16T23:31:00.483Z,94899.26
2022-12-16T23:32:30.549Z,94912.56
2022-12-16T23:33:26.703Z,94873.23
2022-12-16T23:35:52.939Z,94887.89
2022-12-16T23:38:19.164Z,94874.98
2022-12-16T23:40:45.426Z,94856.11
2022-12-16T23:43:11.674Z,94879.44
2022-12-16T23:45:37.952Z,94867.51
2022-12-16T23:48:04.200Z,94870.30
2022-12-16T23:50:30.419Z,94837.59
2022-12-16T23:52:56.699Z,94838.52
2022-12-16T23:55:22.921Z,94867.23
2022-12-16T23:57:49.124Z,94797.44
